sensor_id;sensor_type;location;lat;lon;timestamp;pressure;altitude;pressure_sealevel;temperature;humidity
47592;BME280;33317;33.356;-117.184;2022-08-19T00:02:08;98827.95;;;29.34;22.13
47592;BME280;33317;33.356;-117.184;2022-08-19T00:04:36;98832.47;;;29.20;22.20
47592;BME280;33317;33.356;-117.184;2022-08-19T00:07:14;98835.96;;;29.40;22.39
47592;BME280;33317;33.356;-117.184;2022-08-19T00:09:44;98837.06;;;29.22;22.53
47592;BME280;33317;33.356;-117.184;2022-08-19T00:12:12;98835.27;;;29.06;22.28
47592;BME280;33317;33.356;-117.184;2022-08-19T00:14:41;98838.74;;;28.86;22.17
47592;BME280;33317;33.356;-117.184;2022-08-19T00:17:09;98836.10;;;29.19;21.96
47592;BME280;33317;33.356;-117.184;2022-08-19T00:19:40;98839.32;;;28.97;21.86
47592;BME280;33317;33.356;-117.184;2022-08-19T00:22:08;98838.81;;;29.08;22.20
47592;BME280;33317;33.356;-117.184;2022-08-19T00:24:37;98835.22;;;29.25;22.19
47592;BME280;33317;33.356;-117.184;2022-08-19T00:27:05;98832.67;;;29.34;21.93
47592;BME280;33317;33.356;-117.184;2022-08-19T00:29:34;98830.48;;;29.32;22.11
47592;BME280;33317;33.356;-117.184;2022-08-19T00:32:02;98829.40;;;29.23;22.08
47592;BME280;33317;33.356;-117.184;2022-08-19T00:34:30;98831.10;;;29.28;22.08
47592;BME280;33317;33.356;-117.184;2022-08-19T00:37:00;98832.43;;;29.06;22.22
47592;BME280;33317;33.356;-117.184;2022-08-19T00:39:28;98831.37;;;28.99;22.22
47592;BME280;33317;33.356;-117.184;2022-08-19T00:41:57;98830.03;;;28.83;22.61
47592;BME280;33317;33.356;-117.184;2022-08-19T00:44:27;98831.98;;;28.87;22.48
47592;BME280;33317;33.356;-117.184;2022-08-19T00:46:58;98838.60;;;28.86;22.34
47592;BME280;33317;33.356;-117.184;2022-08-19T00:49:29;98835.12;;;28.90;22.24
47592;BME280;33317;33.356;-117.184;2022-08-19T00:52:02;98833.57;;;28.50;22.52
47592;BME280;33317;33.356;-117.184;2022-08-19T00:54:32;98832.69;;;29.08;22.58
47592;BME280;33317;33.356;-117.184;2022-08-19T00:57:03;98832.43;;;29.21;22.74
47592;BME280;33317;33.356;-117.184;2022-08-19T00:59:34;98835.37;;;29.37;22.50
47592;BME280;33317;33.356;-117.184;2022-08-19T01:02:04;98835.11;;;29.47;22.32
47592;BME280;33317;33.356;-117.184;2022-08-19T01:04:35;98837.55;;;28.93;22.23
47592;BME280;33317;33.356;-117.184;2022-08-19T01:07:04;98836.65;;;29.08;22.14
47592;BME280;33317;33.356;-117.184;2022-08-19T01:09:32;98838.93;;;28.76;22.10
47592;BME280;33317;33.356;-117.184;2022-08-19T01:12:02;98841.96;;;28.93;22.03
47592;BME280;33317;33.356;-117.184;2022-08-19T01:14:38;98844.21;;;28.61;21.97
47592;BME280;33317;33.356;-117.184;2022-08-19T01:17:17;98842.22;;;28.85;22.11
47592;BME280;33317;33.356;-117.184;2022-08-19T01:19:58;98842.43;;;28.87;21.97
47592;BME280;33317;33.356;-117.184;2022-08-19T01:22:29;98844.14;;;29.03;21.88
47592;BME280;33317;33.356;-117.184;2022-08-19T01:24:59;98845.95;;;29.12;21.73
47592;BME280;33317;33.356;-117.184;2022-08-19T01:27:37;98846.25;;;29.00;21.62
47592;BME280;33317;33.356;-117.184;2022-08-19T01:30:09;98843.93;;;28.86;22.15
47592;BME280;33317;33.356;-117.184;2022-08-19T01:32:38;98840.29;;;28.97;21.94
47592;BME280;33317;33.356;-117.184;2022-08-19T01:35:08;98837.52;;;29.08;22.19
47592;BME280;33317;33.356;-117.184;2022-08-19T01:37:49;98839.38;;;29.00;21.96
47592;BME280;33317;33.356;-117.184;2022-08-19T01:40:53;98837.29;;;29.17;22.00
47592;BME280;33317;33.356;-117.184;2022-08-19T01:43:23;98831.44;;;29.09;21.84
47592;BME280;33317;33.356;-117.184;2022-08-19T01:45:56;98830.88;;;29.01;21.81
47592;BME280;33317;33.356;-117.184;2022-08-19T01:48:25;98830.74;;;28.95;21.83
47592;BME280;33317;33.356;-117.184;2022-08-19T01:50:54;98830.45;;;28.84;22.07
47592;BME280;33317;33.356;-117.184;2022-08-19T01:53:22;98826.15;;;29.02;21.80
47592;BME280;33317;33.356;-117.184;2022-08-19T01:55:50;98833.60;;;28.74;22.11
47592;BME280;33317;33.356;-117.184;2022-08-19T01:58:22;98833.68;;;28.96;21.89
47592;BME280;33317;33.356;-117.184;2022-08-19T02:00:52;98833.05;;;28.72;21.87
47592;BME280;33317;33.356;-117.184;2022-08-19T02:03:20;98831.69;;;28.84;22.07
47592;BME280;33317;33.356;-117.184;2022-08-19T02:05:53;98831.88;;;28.86;22.24
47592;BME280;33317;33.356;-117.184;2022-08-19T02:08:22;98831.84;;;28.83;22.10
47592;BME280;33317;33.356;-117.184;2022-08-19T02:10:51;98831.98;;;28.58;22.07
47592;BME280;33317;33.356;-117.184;2022-08-19T02:13:19;98834.27;;;28.71;22.33
47592;BME280;33317;33.356;-117.184;2022-08-19T02:15:49;98834.40;;;28.96;22.05
47592;BME280;33317;33.356;-117.184;2022-08-19T02:18:20;98831.35;;;29.07;22.32
47592;BME280;33317;33.356;-117.184;2022-08-19T02:20:48;98836.90;;;29.05;22.33
47592;BME280;33317;33.356;-117.184;2022-08-19T02:23:17;98840.31;;;28.96;22.46
47592;BME280;33317;33.356;-117.184;2022-08-19T02:25:48;98841.89;;;29.20;22.66
47592;BME280;33317;33.356;-117.184;2022-08-19T02:28:16;98844.01;;;28.81;23.18
47592;BME280;33317;33.356;-117.184;2022-08-19T02:30:45;98843.81;;;29.00;22.80
47592;BME280;33317;33.356;-117.184;2022-08-19T02:33:15;98844.53;;;29.11;22.93
47592;BME280;33317;33.356;-117.184;2022-08-19T02:35:43;98850.11;;;28.84;22.74
47592;BME280;33317;33.356;-117.184;2022-08-19T02:38:13;98850.07;;;28.50;22.75
47592;BME280;33317;33.356;-117.184;2022-08-19T02:40:48;98857.14;;;28.89;22.97
47592;BME280;33317;33.356;-117.184;2022-08-19T02:43:18;98868.30;;;29.16;23.02
47592;BME280;33317;33.356;-117.184;2022-08-19T02:45:48;98876.73;;;29.19;22.80
47592;BME280;33317;33.356;-117.184;2022-08-19T02:48:17;98879.85;;;29.45;22.71
47592;BME280;33317;33.356;-117.184;2022-08-19T02:50:47;98883.09;;;29.18;22.72
47592;BME280;33317;33.356;-117.184;2022-08-19T02:53:16;98886.45;;;28.79;22.74
47592;BME280;33317;33.356;-117.184;2022-08-19T02:55:46;98892.51;;;28.79;22.94
47592;BME280;33317;33.356;-117.184;2022-08-19T02:58:15;98896.87;;;28.60;23.15
47592;BME280;33317;33.356;-117.184;2022-08-19T03:00:50;98896.47;;;28.64;23.36
47592;BME280;33317;33.356;-117.184;2022-08-19T03:03:25;98898.24;;;28.71;23.62
47592;BME280;33317;33.356;-117.184;2022-08-19T03:06:10;98900.37;;;29.19;23.16
47592;BME280;33317;33.356;-117.184;2022-08-19T03:08:41;98903.10;;;28.94;23.33
47592;BME280;33317;33.356;-117.184;2022-08-19T03:11:14;98905.43;;;28.96;22.99
47592;BME280;33317;33.356;-117.184;2022-08-19T03:13:43;98910.06;;;28.79;23.09
47592;BME280;33317;33.356;-117.184;2022-08-19T03:16:13;98909.58;;;28.70;23.33
47592;BME280;33317;33.356;-117.184;2022-08-19T03:18:47;98914.00;;;28.62;23.07
47592;BME280;33317;33.356;-117.184;2022-08-19T03:21:20;98913.94;;;28.95;23.09
47592;BME280;33317;33.356;-117.184;2022-08-19T03:23:54;98918.60;;;29.27;22.92
47592;BME280;33317;33.356;-117.184;2022-08-19T03:26:37;98916.86;;;29.38;23.64
47592;BME280;33317;33.356;-117.184;2022-08-19T03:29:12;98917.33;;;28.90;24.19
47592;BME280;33317;33.356;-117.184;2022-08-19T03:31:42;98920.70;;;28.90;23.76
47592;BME280;33317;33.356;-117.184;2022-08-19T03:34:12;98922.64;;;28.93;23.71
47592;BME280;33317;33.356;-117.184;2022-08-19T03:36:43;98924.96;;;28.87;24.09
47592;BME280;33317;33.356;-117.184;2022-08-19T03:39:11;98930.11;;;28.57;24.27
47592;BME280;33317;33.356;-117.184;2022-08-19T03:41:54;98933.20;;;28.94;23.78
47592;BME280;33317;33.356;-117.184;2022-08-19T03:44:23;98934.84;;;29.37;23.48
47592;BME280;33317;33.356;-117.184;2022-08-19T03:47:03;98940.75;;;29.56;23.55
47592;BME280;33317;33.356;-117.184;2022-08-19T03:49:33;98942.28;;;29.52;23.85
47592;BME280;33317;33.356;-117.184;2022-08-19T03:52:02;98940.62;;;29.44;23.37
47592;BME280;33317;33.356;-117.184;2022-08-19T03:54:34;98948.44;;;28.98;23.57
47592;BME280;33317;33.356;-117.184;2022-08-19T03:57:04;98952.49;;;28.20;24.27
47592;BME280;33317;33.356;-117.184;2022-08-19T03:59:39;98958.08;;;28.30;24.02
47592;BME280;33317;33.356;-117.184;2022-08-19T04:02:11;98957.10;;;28.49;23.73
47592;BME280;33317;33.356;-117.184;2022-08-19T04:04:43;98959.13;;;28.97;23.63
47592;BME280;33317;33.356;-117.184;2022-08-19T04:07:14;98956.48;;;29.33;23.53
47592;BME280;33317;33.356;-117.184;2022-08-19T04:10:02;98963.28;;;29.52;23.36
47592;BME280;33317;33.356;-117.184;2022-08-19T04:12:39;98969.34;;;29.27;23.05
47592;BME280;33317;33.356;-117.184;2022-08-19T04:15:12;98972.40;;;29.60;22.88
47592;BME280;33317;33.356;-117.184;2022-08-19T04:17:56;98976.30;;;28.62;23.05
47592;BME280;33317;33.356;-117.184;2022-08-19T04:20:27;98976.37;;;28.44;23.54
47592;BME280;33317;33.356;-117.184;2022-08-19T04:23:04;98976.92;;;28.62;23.26
47592;BME280;33317;33.356;-117.184;2022-08-19T04:25:37;98980.78;;;28.23;23.33
47592;BME280;33317;33.356;-117.184;2022-08-19T04:28:12;98974.36;;;28.87;23.27
47592;BME280;33317;33.356;-117.184;2022-08-19T04:30:51;98972.37;;;29.14;23.09
47592;BME280;33317;33.356;-117.184;2022-08-19T04:33:26;98967.58;;;29.38;23.14
47592;BME280;33317;33.356;-117.184;2022-08-19T04:36:00;98971.30;;;29.52;23.15
47592;BME280;33317;33.356;-117.184;2022-08-19T04:38:28;98974.86;;;29.70;22.78
47592;BME280;33317;33.356;-117.184;2022-08-19T04:40:56;98972.39;;;28.92;22.68
47592;BME280;33317;33.356;-117.184;2022-08-19T04:43:30;98972.95;;;28.98;22.92
47592;BME280;33317;33.356;-117.184;2022-08-19T04:46:05;98975.24;;;29.20;22.83
47592;BME280;33317;33.356;-117.184;2022-08-19T04:48:39;98978.91;;;29.18;22.46
47592;BME280;33317;33.356;-117.184;2022-08-19T04:51:10;98975.33;;;29.30;22.36
47592;BME280;33317;33.356;-117.184;2022-08-19T04:53:41;98973.50;;;29.42;22.49
47592;BME280;33317;33.356;-117.184;2022-08-19T04:56:13;98972.50;;;29.42;22.68
47592;BME280;33317;33.356;-117.184;2022-08-19T04:58:43;98977.53;;;29.22;22.46
47592;BME280;33317;33.356;-117.184;2022-08-19T05:01:21;98970.87;;;28.92;22.47
47592;BME280;33317;33.356;-117.184;2022-08-19T05:03:51;98968.28;;;29.07;22.83
47592;BME280;33317;33.356;-117.184;2022-08-19T05:06:22;98970.32;;;29.22;22.66
47592;BME280;33317;33.356;-117.184;2022-08-19T05:08:55;98972.97;;;29.22;22.79
47592;BME280;33317;33.356;-117.184;2022-08-19T05:11:29;98976.89;;;29.21;22.96
47592;BME280;33317;33.356;-117.184;2022-08-19T05:14:00;98974.68;;;29.35;23.17
47592;BME280;33317;33.356;-117.184;2022-08-19T05:16:30;98975.64;;;29.42;23.37
47592;BME280;33317;33.356;-117.184;2022-08-19T05:18:59;98974.52;;;29.48;23.24
47592;BME280;33317;33.356;-117.184;2022-08-19T05:21:29;98975.49;;;29.22;23.49
47592;BME280;33317;33.356;-117.184;2022-08-19T05:23:57;98972.51;;;29.17;23.60
47592;BME280;33317;33.356;-117.184;2022-08-19T05:26:26;98970.02;;;29.13;23.56
47592;BME280;33317;33.356;-117.184;2022-08-19T05:28:56;98967.59;;;29.12;23.67
47592;BME280;33317;33.356;-117.184;2022-08-19T05:31:28;98965.80;;;29.11;23.77
47592;BME280;33317;33.356;-117.184;2022-08-19T05:33:57;98961.49;;;29.12;23.53
47592;BME280;33317;33.356;-117.184;2022-08-19T05:36:35;98958.03;;;29.12;23.69
47592;BME280;33317;33.356;-117.184;2022-08-19T05:39:04;98954.31;;;29.37;23.80
47592;BME280;33317;33.356;-117.184;2022-08-19T05:41:34;98952.04;;;29.26;23.72
47592;BME280;33317;33.356;-117.184;2022-08-19T05:44:04;98952.99;;;29.24;23.88
47592;BME280;33317;33.356;-117.184;2022-08-19T05:46:32;98949.59;;;29.25;23.91
47592;BME280;33317;33.356;-117.184;2022-08-19T05:49:01;98951.48;;;29.01;23.89
47592;BME280;33317;33.356;-117.184;2022-08-19T05:51:29;98953.56;;;29.42;23.98
47592;BME280;33317;33.356;-117.184;2022-08-19T05:54:04;98950.69;;;29.20;24.04
47592;BME280;33317;33.356;-117.184;2022-08-19T05:56:32;98948.91;;;29.20;24.05
47592;BME280;33317;33.356;-117.184;2022-08-19T05:59:02;98949.92;;;29.23;24.03
47592;BME280;33317;33.356;-117.184;2022-08-19T06:01:31;98948.59;;;28.99;24.14
47592;BME280;33317;33.356;-117.184;2022-08-19T06:03:59;98952.03;;;28.98;24.22
47592;BME280;33317;33.356;-117.184;2022-08-19T06:06:28;98950.09;;;29.41;24.12
47592;BME280;33317;33.356;-117.184;2022-08-19T06:08:57;98951.49;;;29.20;24.21
47592;BME280;33317;33.356;-117.184;2022-08-19T06:11:34;98947.13;;;28.95;24.36
47592;BME280;33317;33.356;-117.184;2022-08-19T06:14:06;98942.90;;;29.41;24.22
47592;BME280;33317;33.356;-117.184;2022-08-19T06:16:36;98939.41;;;29.15;24.40
47592;BME280;33317;33.356;-117.184;2022-08-19T06:19:08;98935.51;;;29.11;24.48
47592;BME280;33317;33.356;-117.184;2022-08-19T06:21:46;98933.65;;;29.07;24.49
47592;BME280;33317;33.356;-117.184;2022-08-19T06:24:17;98932.07;;;29.04;24.57
47592;BME280;33317;33.356;-117.184;2022-08-19T06:26:48;98931.08;;;28.98;24.70
47592;BME280;33317;33.356;-117.184;2022-08-19T06:29:19;98929.71;;;28.72;24.69
47592;BME280;33317;33.356;-117.184;2022-08-19T06:31:52;98925.83;;;28.93;24.74
47592;BME280;33317;33.356;-117.184;2022-08-19T06:34:21;98923.02;;;29.10;24.80
47592;BME280;33317;33.356;-117.184;2022-08-19T06:36:52;98922.06;;;28.91;24.80
47592;BME280;33317;33.356;-117.184;2022-08-19T06:39:24;98923.11;;;29.07;24.81
47592;BME280;33317;33.356;-117.184;2022-08-19T06:41:54;98920.29;;;28.84;24.88
47592;BME280;33317;33.356;-117.184;2022-08-19T06:44:25;98922.40;;;29.05;24.90
47592;BME280;33317;33.356;-117.184;2022-08-19T06:46:54;98922.90;;;28.61;25.05
47592;BME280;33317;33.356;-117.184;2022-08-19T06:49:23;98921.78;;;29.07;25.06
47592;BME280;33317;33.356;-117.184;2022-08-19T06:51:58;98920.16;;;29.05;24.89
47592;BME280;33317;33.356;-117.184;2022-08-19T06:54:29;98922.79;;;28.84;24.95
47592;BME280;33317;33.356;-117.184;2022-08-19T06:56:59;98925.85;;;29.04;25.39
47592;BME280;33317;33.356;-117.184;2022-08-19T06:59:30;98928.42;;;28.85;25.17
47592;BME280;33317;33.356;-117.184;2022-08-19T07:02:02;98930.84;;;29.13;25.03
47592;BME280;33317;33.356;-117.184;2022-08-19T07:04:33;98933.78;;;29.12;25.03
47592;BME280;33317;33.356;-117.184;2022-08-19T07:07:05;98934.61;;;29.07;25.15
47592;BME280;33317;33.356;-117.184;2022-08-19T07:09:34;98931.25;;;28.95;25.33
47592;BME280;33317;33.356;-117.184;2022-08-19T07:12:03;98932.90;;;28.72;25.30
47592;BME280;33317;33.356;-117.184;2022-08-19T07:14:33;98932.84;;;28.89;25.52
47592;BME280;33317;33.356;-117.184;2022-08-19T07:17:02;98932.28;;;28.43;25.47
47592;BME280;33317;33.356;-117.184;2022-08-19T07:19:30;98926.81;;;28.87;25.44
47592;BME280;33317;33.356;-117.184;2022-08-19T07:22:00;98924.98;;;28.65;25.55
47592;BME280;33317;33.356;-117.184;2022-08-19T07:24:30;98925.39;;;28.84;25.57
47592;BME280;33317;33.356;-117.184;2022-08-19T07:27:02;98925.37;;;28.82;25.67
47592;BME280;33317;33.356;-117.184;2022-08-19T07:29:32;98924.47;;;28.79;25.89
47592;BME280;33317;33.356;-117.184;2022-08-19T07:32:03;98923.31;;;28.78;25.78
47592;BME280;33317;33.356;-117.184;2022-08-19T07:34:32;98922.07;;;28.78;25.74
47592;BME280;33317;33.356;-117.184;2022-08-19T07:37:06;98923.15;;;28.57;25.74
47592;BME280;33317;33.356;-117.184;2022-08-19T07:39:37;98920.90;;;28.59;25.87
47592;BME280;33317;33.356;-117.184;2022-08-19T07:42:08;98914.09;;;28.78;25.82
47592;BME280;33317;33.356;-117.184;2022-08-19T07:44:38;98910.63;;;28.76;25.78
47592;BME280;33317;33.356;-117.184;2022-08-19T07:47:07;98904.97;;;28.75;25.88
47592;BME280;33317;33.356;-117.184;2022-08-19T07:49:35;98899.00;;;28.52;26.02
47592;BME280;33317;33.356;-117.184;2022-08-19T07:52:06;98898.43;;;28.72;25.97
47592;BME280;33317;33.356;-117.184;2022-08-19T07:54:38;98896.26;;;28.74;26.12
47592;BME280;33317;33.356;-117.184;2022-08-19T07:57:08;98891.49;;;28.49;25.93
47592;BME280;33317;33.356;-117.184;2022-08-19T07:59:36;98886.12;;;28.69;26.07
47592;BME280;33317;33.356;-117.184;2022-08-19T08:02:05;98878.21;;;28.48;26.22
47592;BME280;33317;33.356;-117.184;2022-08-19T08:04:34;98870.90;;;28.49;26.24
47592;BME280;33317;33.356;-117.184;2022-08-19T08:07:03;98867.92;;;28.69;26.06
47592;BME280;33317;33.356;-117.184;2022-08-19T08:09:35;98863.39;;;28.67;26.18
47592;BME280;33317;33.356;-117.184;2022-08-19T08:12:06;98861.54;;;28.66;26.24
47592;BME280;33317;33.356;-117.184;2022-08-19T08:14:38;98862.60;;;28.38;26.28
47592;BME280;33317;33.356;-117.184;2022-08-19T08:17:08;98861.48;;;28.61;26.24
47592;BME280;33317;33.356;-117.184;2022-08-19T08:19:38;98859.48;;;28.92;26.30
47592;BME280;33317;33.356;-117.184;2022-08-19T08:22:07;98860.61;;;28.91;26.29
47592;BME280;33317;33.356;-117.184;2022-08-19T08:24:37;98859.63;;;28.65;26.26
47592;BME280;33317;33.356;-117.184;2022-08-19T08:27:05;98854.35;;;28.66;26.21
47592;BME280;33317;33.356;-117.184;2022-08-19T08:29:34;98851.33;;;28.68;26.38
47592;BME280;33317;33.356;-117.184;2022-08-19T08:32:12;98845.55;;;28.71;26.22
47592;BME280;33317;33.356;-117.184;2022-08-19T08:34:41;98841.43;;;28.49;26.27
47592;BME280;33317;33.356;-117.184;2022-08-19T08:37:10;98839.12;;;28.68;26.21
47592;BME280;33317;33.356;-117.184;2022-08-19T08:39:38;98838.79;;;28.61;26.43
47592;BME280;33317;33.356;-117.184;2022-08-19T08:42:11;98836.09;;;28.40;26.38
47592;BME280;33317;33.356;-117.184;2022-08-19T08:44:53;98836.02;;;28.63;26.47
47592;BME280;33317;33.356;-117.184;2022-08-19T08:47:29;98833.61;;;28.66;26.66
47592;BME280;33317;33.356;-117.184;2022-08-19T08:50:03;98834.55;;;28.68;26.45
47592;BME280;33317;33.356;-117.184;2022-08-19T08:52:34;98838.54;;;28.74;26.34
47592;BME280;33317;33.356;-117.184;2022-08-19T08:55:08;98835.17;;;28.76;26.33
47592;BME280;33317;33.356;-117.184;2022-08-19T08:57:53;98833.69;;;28.77;26.41
47592;BME280;33317;33.356;-117.184;2022-08-19T09:00:25;98829.60;;;28.81;26.37
47592;BME280;33317;33.356;-117.184;2022-08-19T09:02:56;98821.35;;;28.65;26.31
47592;BME280;33317;33.356;-117.184;2022-08-19T09:05:30;98817.20;;;28.86;26.47
47592;BME280;33317;33.356;-117.184;2022-08-19T09:08:08;98815.88;;;28.81;26.54
47592;BME280;33317;33.356;-117.184;2022-08-19T09:10:42;98814.33;;;28.80;26.58
47592;BME280;33317;33.356;-117.184;2022-08-19T09:13:19;98812.54;;;28.79;26.52
47592;BME280;33317;33.356;-117.184;2022-08-19T09:15:54;98813.26;;;28.56;26.48
47592;BME280;33317;33.356;-117.184;2022-08-19T09:18:24;98812.33;;;28.61;26.51
47592;BME280;33317;33.356;-117.184;2022-08-19T09:20:53;98810.90;;;28.44;26.35
47592;BME280;33317;33.356;-117.184;2022-08-19T09:23:21;98809.95;;;28.93;26.29
47592;BME280;33317;33.356;-117.184;2022-08-19T09:25:49;98808.48;;;28.93;26.37
47592;BME280;33317;33.356;-117.184;2022-08-19T09:28:17;98806.40;;;28.90;26.35
47592;BME280;33317;33.356;-117.184;2022-08-19T09:30:46;98805.43;;;28.87;26.46
47592;BME280;33317;33.356;-117.184;2022-08-19T09:33:14;98804.63;;;28.86;26.50
47592;BME280;33317;33.356;-117.184;2022-08-19T09:35:43;98806.30;;;28.78;26.56
47592;BME280;33317;33.356;-117.184;2022-08-19T09:38:11;98809.75;;;28.74;26.86
47592;BME280;33317;33.356;-117.184;2022-08-19T09:40:41;98814.16;;;28.71;26.79
47592;BME280;33317;33.356;-117.184;2022-08-19T09:43:09;98806.57;;;28.65;26.95
47592;BME280;33317;33.356;-117.184;2022-08-19T09:45:37;98804.91;;;28.61;26.97
47592;BME280;33317;33.356;-117.184;2022-08-19T09:48:06;98804.94;;;28.60;26.90
47592;BME280;33317;33.356;-117.184;2022-08-19T09:50:34;98804.21;;;28.54;27.00
47592;BME280;33317;33.356;-117.184;2022-08-19T09:53:04;98808.54;;;28.51;26.95
47592;BME280;33317;33.356;-117.184;2022-08-19T09:55:32;98810.30;;;28.72;27.13
47592;BME280;33317;33.356;-117.184;2022-08-19T09:58:02;98808.82;;;28.46;27.34
47592;BME280;33317;33.356;-117.184;2022-08-19T10:00:31;98806.96;;;28.49;27.09
47592;BME280;33317;33.356;-117.184;2022-08-19T10:03:00;98801.08;;;28.57;26.99
47592;BME280;33317;33.356;-117.184;2022-08-19T10:05:29;98791.29;;;28.82;27.05
47592;BME280;33317;33.356;-117.184;2022-08-19T10:07:57;98791.99;;;28.57;27.10
47592;BME280;33317;33.356;-117.184;2022-08-19T10:10:25;98791.98;;;28.36;27.10
47592;BME280;33317;33.356;-117.184;2022-08-19T10:12:54;98791.90;;;28.57;26.91
47592;BME280;33317;33.356;-117.184;2022-08-19T10:15:22;98785.23;;;28.54;27.05
47592;BME280;33317;33.356;-117.184;2022-08-19T10:17:50;98781.43;;;28.52;26.99
47592;BME280;33317;33.356;-117.184;2022-08-19T10:20:19;98781.55;;;28.57;27.07
47592;BME280;33317;33.356;-117.184;2022-08-19T10:22:48;98788.37;;;28.33;27.20
47592;BME280;33317;33.356;-117.184;2022-08-19T10:25:16;98787.60;;;28.52;27.04
47592;BME280;33317;33.356;-117.184;2022-08-19T10:27:45;98784.48;;;28.49;27.21
47592;BME280;33317;33.356;-117.184;2022-08-19T10:30:14;98777.29;;;28.45;27.38
47592;BME280;33317;33.356;-117.184;2022-08-19T10:32:42;98780.51;;;28.72;27.23
47592;BME280;33317;33.356;-117.184;2022-08-19T10:35:12;98785.18;;;28.90;27.38
47592;BME280;33317;33.356;-117.184;2022-08-19T10:37:41;98783.18;;;28.64;27.41
47592;BME280;33317;33.356;-117.184;2022-08-19T10:40:10;98780.75;;;28.58;27.54
47592;BME280;33317;33.356;-117.184;2022-08-19T10:42:38;98781.54;;;28.34;27.58
47592;BME280;33317;33.356;-117.184;2022-08-19T10:45:07;98785.61;;;28.32;27.64
47592;BME280;33317;33.356;-117.184;2022-08-19T10:47:36;98788.45;;;28.60;27.58
47592;BME280;33317;33.356;-117.184;2022-08-19T10:50:05;98789.23;;;28.25;27.61
47592;BME280;33317;33.356;-117.184;2022-08-19T10:52:34;98787.43;;;28.19;27.72
47592;BME280;33317;33.356;-117.184;2022-08-19T10:55:03;98781.99;;;28.25;27.65
47592;BME280;33317;33.356;-117.184;2022-08-19T10:57:32;98773.89;;;28.27;27.57
47592;BME280;33317;33.356;-117.184;2022-08-19T11:00:00;98772.88;;;28.31;27.53
47592;BME280;33317;33.356;-117.184;2022-08-19T11:02:29;98774.98;;;28.35;27.57
47592;BME280;33317;33.356;-117.184;2022-08-19T11:04:57;98777.87;;;28.36;27.51
47592;BME280;33317;33.356;-117.184;2022-08-19T11:07:26;98777.43;;;28.39;27.40
47592;BME280;33317;33.356;-117.184;2022-08-19T11:09:54;98773.11;;;28.39;27.34
47592;BME280;33317;33.356;-117.184;2022-08-19T11:12:23;98773.04;;;28.38;27.38
47592;BME280;33317;33.356;-117.184;2022-08-19T11:14:51;98777.17;;;28.35;27.35
47592;BME280;33317;33.356;-117.184;2022-08-19T11:17:19;98784.89;;;28.37;27.50
47592;BME280;33317;33.356;-117.184;2022-08-19T11:19:47;98784.29;;;28.35;27.47
47592;BME280;33317;33.356;-117.184;2022-08-19T11:22:16;98783.94;;;28.36;27.56
47592;BME280;33317;33.356;-117.184;2022-08-19T11:24:45;98783.32;;;28.14;27.52
47592;BME280;33317;33.356;-117.184;2022-08-19T11:27:13;98780.57;;;28.32;27.63
47592;BME280;33317;33.356;-117.184;2022-08-19T11:29:41;98778.20;;;28.54;27.96
47592;BME280;33317;33.356;-117.184;2022-08-19T11:32:10;98774.50;;;28.27;27.71
47592;BME280;33317;33.356;-117.184;2022-08-19T11:34:39;98774.34;;;28.24;27.87
47592;BME280;33317;33.356;-117.184;2022-08-19T11:37:08;98768.40;;;28.19;27.90
47592;BME280;33317;33.356;-117.184;2022-08-19T11:39:36;98765.69;;;28.18;28.06
47592;BME280;33317;33.356;-117.184;2022-08-19T11:42:06;98767.21;;;28.16;27.99
47592;BME280;33317;33.356;-117.184;2022-08-19T11:44:34;98772.03;;;28.14;27.88
47592;BME280;33317;33.356;-117.184;2022-08-19T11:47:03;98774.47;;;27.96;28.01
47592;BME280;33317;33.356;-117.184;2022-08-19T11:49:32;98778.33;;;28.24;27.81
47592;BME280;33317;33.356;-117.184;2022-08-19T11:52:00;98777.79;;;28.34;27.63
47592;BME280;33317;33.356;-117.184;2022-08-19T11:54:29;98774.96;;;28.44;27.65
47592;BME280;33317;33.356;-117.184;2022-08-19T11:56:57;98770.41;;;28.27;27.59
47592;BME280;33317;33.356;-117.184;2022-08-19T11:59:26;98768.90;;;28.48;27.49
47592;BME280;33317;33.356;-117.184;2022-08-19T12:01:54;98771.71;;;28.46;27.55
47592;BME280;33317;33.356;-117.184;2022-08-19T12:04:23;98771.53;;;28.45;27.77
47592;BME280;33317;33.356;-117.184;2022-08-19T12:06:51;98762.65;;;28.41;27.52
47592;BME280;33317;33.356;-117.184;2022-08-19T12:09:19;98754.65;;;28.38;27.63
47592;BME280;33317;33.356;-117.184;2022-08-19T12:11:47;98754.42;;;28.33;27.70
47592;BME280;33317;33.356;-117.184;2022-08-19T12:14:16;98761.09;;;28.31;27.64
47592;BME280;33317;33.356;-117.184;2022-08-19T12:16:46;98759.53;;;28.33;27.72
47592;BME280;33317;33.356;-117.184;2022-08-19T12:19:14;98753.27;;;28.28;27.74
47592;BME280;33317;33.356;-117.184;2022-08-19T12:21:47;98747.12;;;28.50;27.84
47592;BME280;33317;33.356;-117.184;2022-08-19T12:24:16;98751.50;;;28.20;27.80
47592;BME280;33317;33.356;-117.184;2022-08-19T12:26:49;98754.51;;;28.18;27.83
47592;BME280;33317;33.356;-117.184;2022-08-19T12:29:18;98751.02;;;28.21;27.90
47592;BME280;33317;33.356;-117.184;2022-08-19T12:31:51;98740.77;;;28.21;27.90
47592;BME280;33317;33.356;-117.184;2022-08-19T12:34:20;98741.76;;;28.25;27.77
47592;BME280;33317;33.356;-117.184;2022-08-19T12:36:48;98747.98;;;28.29;27.77
47592;BME280;33317;33.356;-117.184;2022-08-19T12:39:17;98750.82;;;28.27;27.76
47592;BME280;33317;33.356;-117.184;2022-08-19T12:41:45;98749.66;;;28.47;27.95
47592;BME280;33317;33.356;-117.184;2022-08-19T12:44:13;98749.74;;;28.21;27.91
47592;BME280;33317;33.356;-117.184;2022-08-19T12:46:47;98752.02;;;28.52;27.92
47592;BME280;33317;33.356;-117.184;2022-08-19T12:49:16;98752.94;;;28.30;27.84